sensor_id;sensor_type;location;lat;lon;timestamp;P1;durP1;ratioP1;P2;durP2;ratioP2
71183;SDS011;58887;51.980;4.464;2023-03-08T00:01:11;652.23;;;652.23;;
71183;SDS011;58887;51.980;4.464;2023-03-08T00:03:39;601.80;;;601.80;;
71183;SDS011;58887;51.980;4.464;2023-03-08T00:06:08;567.55;;;567.55;;
71183;SDS011;58887;51.980;4.464;2023-03-08T00:08:39;510.32;;;510.32;;
71183;SDS011;58887;51.980;4.464;2023-03-08T00:11:06;462.88;;;462.88;;
71183;SDS011;58887;51.980;4.464;2023-03-08T00:13:33;562.52;;;562.52;;
71183;SDS011;58887;51.980;4.464;2023-03-08T00:16:00;675.19;;;675.19;;
71183;SDS011;58887;51.980;4.464;2023-03-08T00:18:26;662.35;;;662.35;;
71183;SDS011;58887;51.980;4.464;2023-03-08T00:20:59;635.54;;;635.54;;
71183;SDS011;58887;51.980;4.464;2023-03-08T00:23:26;485.93;;;485.93;;
71183;SDS011;58887;51.980;4.464;2023-03-08T00:25:53;461.28;;;461.28;;
71183;SDS011;58887;51.980;4.464;2023-03-08T00:28:19;418.14;;;418.14;;
71183;SDS011;58887;51.980;4.464;2023-03-08T00:30:45;310.49;;;310.49;;
71183;SDS011;58887;51.980;4.464;2023-03-08T00:33:10;192.49;;;192.49;;
71183;SDS011;58887;51.980;4.464;2023-03-08T00:35:38;184.21;;;184.21;;
71183;SDS011;58887;51.980;4.464;2023-03-08T00:38:05;237.21;;;237.21;;
71183;SDS011;58887;51.980;4.464;2023-03-08T00:40:30;305.21;;;305.21;;
71183;SDS011;58887;51.980;4.464;2023-03-08T00:42:56;268.10;;;268.10;;
71183;SDS011;58887;51.980;4.464;2023-03-08T00:45:21;256.01;;;256.01;;
71183;SDS011;58887;51.980;4.464;2023-03-08T00:47:48;276.52;;;276.52;;
71183;SDS011;58887;51.980;4.464;2023-03-08T00:50:13;284.94;;;284.94;;
71183;SDS011;58887;51.980;4.464;2023-03-08T00:52:40;286.24;;;286.24;;
71183;SDS011;58887;51.980;4.464;2023-03-08T00:55:06;173.40;;;173.40;;
71183;SDS011;58887;51.980;4.464;2023-03-08T00:57:31;189.79;;;189.79;;
71183;SDS011;58887;51.980;4.464;2023-03-08T00:59:57;262.57;;;262.57;;
71183;SDS011;58887;51.980;4.464;2023-03-08T01:02:22;327.63;;;327.63;;
71183;SDS011;58887;51.980;4.464;2023-03-08T01:04:48;299.01;;;299.01;;
71183;SDS011;58887;51.980;4.464;2023-03-08T01:07:13;298.08;;;298.08;;
71183;SDS011;58887;51.980;4.464;2023-03-08T01:09:40;286.63;;;286.63;;
71183;SDS011;58887;51.980;4.464;2023-03-08T01:12:05;352.04;;;352.04;;
71183;SDS011;58887;51.980;4.464;2023-03-08T01:14:31;390.31;;;390.31;;
71183;SDS011;58887;51.980;4.464;2023-03-08T01:16:56;411.72;;;411.72;;
71183;SDS011;58887;51.980;4.464;2023-03-08T01:19:22;372.53;;;372.53;;
71183;SDS011;58887;51.980;4.464;2023-03-08T01:21:47;332.95;;;332.95;;
71183;SDS011;58887;51.980;4.464;2023-03-08T01:24:13;189.06;;;189.06;;
71183;SDS011;58887;51.980;4.464;2023-03-08T01:26:38;166.82;;;166.82;;
71183;SDS011;58887;51.980;4.464;2023-03-08T01:29:04;92.71;;;92.71;;
71183;SDS011;58887;51.980;4.464;2023-03-08T01:31:31;50.88;;;50.88;;
71183;SDS011;58887;51.980;4.464;2023-03-08T01:33:56;15.64;;;15.64;;
71183;SDS011;58887;51.980;4.464;2023-03-08T01:36:23;41.15;;;41.15;;
71183;SDS011;58887;51.980;4.464;2023-03-08T01:38:51;100.61;;;100.61;;
71183;SDS011;58887;51.980;4.464;2023-03-08T01:41:18;130.02;;;130.02;;
71183;SDS011;58887;51.980;4.464;2023-03-08T01:43:51;154.11;;;154.11;;
71183;SDS011;58887;51.980;4.464;2023-03-08T01:51:29;57.43;;;57.43;;
71183;SDS011;58887;51.980;4.464;2023-03-08T01:53:58;8.48;;;8.48;;
71183;SDS011;58887;51.980;4.464;2023-03-08T01:56:31;32.51;;;32.51;;
71183;SDS011;58887;51.980;4.464;2023-03-08T01:58:59;109.43;;;109.43;;
71183;SDS011;58887;51.980;4.464;2023-03-08T02:01:25;202.41;;;202.41;;
71183;SDS011;58887;51.980;4.464;2023-03-08T02:03:51;327.42;;;327.42;;
71183;SDS011;58887;51.980;4.464;2023-03-08T02:06:18;432.12;;;432.12;;
71183;SDS011;58887;51.980;4.464;2023-03-08T02:08:47;528.80;;;528.80;;
71183;SDS011;58887;51.980;4.464;2023-03-08T02:11:13;513.03;;;513.03;;
71183;SDS011;58887;51.980;4.464;2023-03-08T02:13:41;857.93;;;857.93;;
71183;SDS011;58887;51.980;4.464;2023-03-08T02:16:08;857.47;;;857.47;;
71183;SDS011;58887;51.980;4.464;2023-03-08T02:18:56;720.27;;;720.27;;
71183;SDS011;58887;51.980;4.464;2023-03-08T02:21:25;840.04;;;840.04;;
71183;SDS011;58887;51.980;4.464;2023-03-08T02:23:53;905.71;;;905.71;;
71183;SDS011;58887;51.980;4.464;2023-03-08T02:26:19;930.63;;;930.63;;
71183;SDS011;58887;51.980;4.464;2023-03-08T02:28:46;864.54;;;864.54;;
71183;SDS011;58887;51.980;4.464;2023-03-08T02:31:13;803.30;;;803.30;;
71183;SDS011;58887;51.980;4.464;2023-03-08T02:33:39;761.99;;;761.99;;
71183;SDS011;58887;51.980;4.464;2023-03-08T02:36:05;691.31;;;691.31;;
71183;SDS011;58887;51.980;4.464;2023-03-08T02:38:34;800.82;;;800.82;;
71183;SDS011;58887;51.980;4.464;2023-03-08T02:41:00;849.75;;;849.75;;
71183;SDS011;58887;51.980;4.464;2023-03-08T02:43:25;829.46;;;829.46;;
71183;SDS011;58887;51.980;4.464;2023-03-08T02:45:51;877.41;;;877.41;;
71183;SDS011;58887;51.980;4.464;2023-03-08T02:48:17;892.47;;;892.47;;
71183;SDS011;58887;51.980;4.464;2023-03-08T02:50:43;801.75;;;801.75;;
71183;SDS011;58887;51.980;4.464;2023-03-08T02:53:08;883.69;;;883.69;;
71183;SDS011;58887;51.980;4.464;2023-03-08T02:55:34;903.52;;;903.52;;
71183;SDS011;58887;51.980;4.464;2023-03-08T02:58:01;872.27;;;872.27;;
71183;SDS011;58887;51.980;4.464;2023-03-08T03:00:29;725.56;;;725.56;;
71183;SDS011;58887;51.980;4.464;2023-03-08T03:02:55;711.29;;;711.29;;
71183;SDS011;58887;51.980;4.464;2023-03-08T03:05:20;638.10;;;638.10;;
71183;SDS011;58887;51.980;4.464;2023-03-08T03:07:46;578.48;;;578.48;;
71183;SDS011;58887;51.980;4.464;2023-03-08T03:10:11;730.04;;;730.04;;
71183;SDS011;58887;51.980;4.464;2023-03-08T03:12:38;778.60;;;778.60;;
71183;SDS011;58887;51.980;4.464;2023-03-08T03:15:06;800.22;;;800.22;;
71183;SDS011;58887;51.980;4.464;2023-03-08T03:17:33;789.69;;;789.69;;
71183;SDS011;58887;51.980;4.464;2023-03-08T03:20:01;782.41;;;782.41;;
71183;SDS011;58887;51.980;4.464;2023-03-08T03:22:27;790.97;;;790.97;;
71183;SDS011;58887;51.980;4.464;2023-03-08T03:24:53;789.46;;;789.46;;
71183;SDS011;58887;51.980;4.464;2023-03-08T03:27:18;808.48;;;808.48;;
71183;SDS011;58887;51.980;4.464;2023-03-08T03:29:45;820.93;;;820.93;;
71183;SDS011;58887;51.980;4.464;2023-03-08T03:32:11;823.10;;;823.10;;
71183;SDS011;58887;51.980;4.464;2023-03-08T03:34:36;856.20;;;856.20;;
71183;SDS011;58887;51.980;4.464;2023-03-08T03:37:02;813.17;;;813.17;;
71183;SDS011;58887;51.980;4.464;2023-03-08T03:39:30;843.48;;;843.48;;
71183;SDS011;58887;51.980;4.464;2023-03-08T03:41:59;896.79;;;896.79;;
71183;SDS011;58887;51.980;4.464;2023-03-08T03:44:27;912.86;;;912.86;;
71183;SDS011;58887;51.980;4.464;2023-03-08T03:46:54;952.18;;;952.18;;
71183;SDS011;58887;51.980;4.464;2023-03-08T03:49:20;962.11;;;962.11;;
71183;SDS011;58887;51.980;4.464;2023-03-08T03:51:45;964.52;;;964.52;;
71183;SDS011;58887;51.980;4.464;2023-03-08T03:54:13;955.94;;;955.94;;
71183;SDS011;58887;51.980;4.464;2023-03-08T03:56:40;962.69;;;962.69;;
71183;SDS011;58887;51.980;4.464;2023-03-08T03:59:05;961.32;;;961.32;;
71183;SDS011;58887;51.980;4.464;2023-03-08T04:01:31;958.81;;;958.81;;
71183;SDS011;58887;51.980;4.464;2023-03-08T04:03:57;956.46;;;956.46;;
71183;SDS011;58887;51.980;4.464;2023-03-08T04:08:54;964.00;;;964.00;;
71183;SDS011;58887;51.980;4.464;2023-03-08T04:11:23;965.71;;;965.71;;
71183;SDS011;58887;51.980;4.464;2023-03-08T04:13:50;961.93;;;961.93;;
71183;SDS011;58887;51.980;4.464;2023-03-08T04:16:23;960.69;;;960.69;;
71183;SDS011;58887;51.980;4.464;2023-03-08T04:18:54;944.76;;;944.76;;
71183;SDS011;58887;51.980;4.464;2023-03-08T04:21:22;941.65;;;941.65;;
71183;SDS011;58887;51.980;4.464;2023-03-08T04:23:49;942.86;;;942.86;;
71183;SDS011;58887;51.980;4.464;2023-03-08T04:26:15;926.11;;;926.11;;
71183;SDS011;58887;51.980;4.464;2023-03-08T04:28:41;883.14;;;883.14;;
71183;SDS011;58887;51.980;4.464;2023-03-08T04:31:13;894.35;;;894.35;;
71183;SDS011;58887;51.980;4.464;2023-03-08T04:33:41;934.74;;;934.74;;
71183;SDS011;58887;51.980;4.464;2023-03-08T04:36:07;891.94;;;891.94;;
71183;SDS011;58887;51.980;4.464;2023-03-08T04:38:33;871.63;;;871.63;;
71183;SDS011;58887;51.980;4.464;2023-03-08T04:41:00;799.37;;;799.37;;
71183;SDS011;58887;51.980;4.464;2023-03-08T04:43:32;736.40;;;736.40;;
71183;SDS011;58887;51.980;4.464;2023-03-08T04:45:58;664.57;;;664.57;;
71183;SDS011;58887;51.980;4.464;2023-03-08T04:48:24;532.96;;;532.96;;
71183;SDS011;58887;51.980;4.464;2023-03-08T04:50:53;474.17;;;474.17;;
71183;SDS011;58887;51.980;4.464;2023-03-08T04:53:21;427.76;;;427.76;;
71183;SDS011;58887;51.980;4.464;2023-03-08T04:55:47;420.44;;;420.44;;
71183;SDS011;58887;51.980;4.464;2023-03-08T04:58:13;317.50;;;317.50;;
71183;SDS011;58887;51.980;4.464;2023-03-08T05:00:39;285.54;;;285.54;;
71183;SDS011;58887;51.980;4.464;2023-03-08T05:03:05;271.00;;;271.00;;
71183;SDS011;58887;51.980;4.464;2023-03-08T05:05:31;313.58;;;313.58;;
71183;SDS011;58887;51.980;4.464;2023-03-08T05:07:56;333.60;;;333.60;;
71183;SDS011;58887;51.980;4.464;2023-03-08T05:10:24;322.55;;;322.55;;
71183;SDS011;58887;51.980;4.464;2023-03-08T05:12:49;332.57;;;332.57;;
71183;SDS011;58887;51.980;4.464;2023-03-08T05:15:15;322.61;;;322.61;;
71183;SDS011;58887;51.980;4.464;2023-03-08T05:17:40;346.59;;;346.59;;
71183;SDS011;58887;51.980;4.464;2023-03-08T05:20:06;424.67;;;424.67;;
71183;SDS011;58887;51.980;4.464;2023-03-08T05:22:33;412.95;;;412.95;;
71183;SDS011;58887;51.980;4.464;2023-03-08T05:24:58;378.58;;;378.58;;
71183;SDS011;58887;51.980;4.464;2023-03-08T05:27:24;390.35;;;390.35;;
71183;SDS011;58887;51.980;4.464;2023-03-08T05:29:50;404.60;;;404.60;;
71183;SDS011;58887;51.980;4.464;2023-03-08T05:32:17;408.02;;;408.02;;
71183;SDS011;58887;51.980;4.464;2023-03-08T05:34:42;447.91;;;447.91;;
71183;SDS011;58887;51.980;4.464;2023-03-08T05:37:08;506.79;;;506.79;;
71183;SDS011;58887;51.980;4.464;2023-03-08T05:39:33;531.54;;;531.54;;
71183;SDS011;58887;51.980;4.464;2023-03-08T05:41:59;511.05;;;511.05;;
71183;SDS011;58887;51.980;4.464;2023-03-08T05:44:24;555.09;;;555.09;;
71183;SDS011;58887;51.980;4.464;2023-03-08T05:46:50;644.59;;;644.59;;
71183;SDS011;58887;51.980;4.464;2023-03-08T05:49:17;597.01;;;597.01;;
71183;SDS011;58887;51.980;4.464;2023-03-08T05:51:43;489.82;;;489.82;;
71183;SDS011;58887;51.980;4.464;2023-03-08T05:54:09;484.07;;;484.07;;
71183;SDS011;58887;51.980;4.464;2023-03-08T05:56:35;543.11;;;543.11;;
71183;SDS011;58887;51.980;4.464;2023-03-08T05:59:01;591.49;;;591.49;;
71183;SDS011;58887;51.980;4.464;2023-03-08T06:01:27;578.95;;;578.95;;
71183;SDS011;58887;51.980;4.464;2023-03-08T06:03:54;663.29;;;663.29;;
71183;SDS011;58887;51.980;4.464;2023-03-08T06:06:22;753.14;;;750.67;;
71183;SDS011;58887;51.980;4.464;2023-03-08T06:08:50;651.31;;;651.28;;
71183;SDS011;58887;51.980;4.464;2023-03-08T06:11:17;719.71;;;719.71;;
71183;SDS011;58887;51.980;4.464;2023-03-08T06:13:42;796.01;;;795.63;;
71183;SDS011;58887;51.980;4.464;2023-03-08T06:16:08;947.85;;;947.53;;
71183;SDS011;58887;51.980;4.464;2023-03-08T06:18:35;1001.95;;;1001.95;;
71183;SDS011;58887;51.980;4.464;2023-03-08T06:23:28;977.75;;;977.75;;
71183;SDS011;58887;51.980;4.464;2023-03-08T06:25:55;897.88;;;897.88;;
71183;SDS011;58887;51.980;4.464;2023-03-08T06:28:22;674.25;;;674.25;;
71183;SDS011;58887;51.980;4.464;2023-03-08T06:30:49;618.37;;;618.37;;
71183;SDS011;58887;51.980;4.464;2023-03-08T06:33:15;734.21;;;729.05;;
71183;SDS011;58887;51.980;4.464;2023-03-08T06:35:42;864.34;;;851.47;;
71183;SDS011;58887;51.980;4.464;2023-03-08T06:38:08;928.82;;;896.16;;
71183;SDS011;58887;51.980;4.464;2023-03-08T06:40:33;816.37;;;815.47;;
71183;SDS011;58887;51.980;4.464;2023-03-08T06:42:59;840.39;;;840.39;;
71183;SDS011;58887;51.980;4.464;2023-03-08T06:45:26;731.90;;;731.90;;
71183;SDS011;58887;51.980;4.464;2023-03-08T06:47:52;793.28;;;793.28;;
71183;SDS011;58887;51.980;4.464;2023-03-08T06:50:17;926.50;;;926.50;;
71183;SDS011;58887;51.980;4.464;2023-03-08T06:52:43;996.56;;;996.56;;
71183;SDS011;58887;51.980;4.464;2023-03-08T06:55:09;974.11;;;974.11;;
71183;SDS011;58887;51.980;4.464;2023-03-08T06:57:35;958.38;;;958.38;;
71183;SDS011;58887;51.980;4.464;2023-03-08T07:00:00;1007.58;;;1007.58;;
71183;SDS011;58887;51.980;4.464;2023-03-08T07:02:27;1048.97;;;1031.96;;
71183;SDS011;58887;51.980;4.464;2023-03-08T07:04:52;1082.74;;;1061.78;;
71183;SDS011;58887;51.980;4.464;2023-03-08T07:07:19;1042.08;;;1042.08;;
71183;SDS011;58887;51.980;4.464;2023-03-08T07:09:44;1033.66;;;1033.07;;
71183;SDS011;58887;51.980;4.464;2023-03-08T07:12:10;1073.23;;;1072.20;;
71183;SDS011;58887;51.980;4.464;2023-03-08T07:14:35;1074.57;;;1074.57;;
71183;SDS011;58887;51.980;4.464;2023-03-08T07:17:01;1102.61;;;1101.89;;
71183;SDS011;58887;51.980;4.464;2023-03-08T07:19:26;1085.31;;;1084.29;;
71183;SDS011;58887;51.980;4.464;2023-03-08T07:21:52;1065.57;;;1065.57;;
71183;SDS011;58887;51.980;4.464;2023-03-08T07:24:17;1082.23;;;1081.40;;
71183;SDS011;58887;51.980;4.464;2023-03-08T07:26:44;1105.71;;;1103.29;;
71183;SDS011;58887;51.980;4.464;2023-03-08T07:29:09;1089.43;;;1088.78;;
71183;SDS011;58887;51.980;4.464;2023-03-08T07:31:35;1095.55;;;1094.69;;
71183;SDS011;58887;51.980;4.464;2023-03-08T07:34:04;1114.96;;;1113.89;;
71183;SDS011;58887;51.980;4.464;2023-03-08T07:36:29;1169.17;;;1166.05;;
71183;SDS011;58887;51.980;4.464;2023-03-08T07:38:55;1181.46;;;1174.36;;
71183;SDS011;58887;51.980;4.464;2023-03-08T07:41:20;1149.82;;;1148.96;;
71183;SDS011;58887;51.980;4.464;2023-03-08T07:43:46;1169.23;;;1166.34;;
71183;SDS011;58887;51.980;4.464;2023-03-08T07:46:11;1136.37;;;1135.53;;
71183;SDS011;58887;51.980;4.464;2023-03-08T07:48:37;1075.84;;;1073.80;;
71183;SDS011;58887;51.980;4.464;2023-03-08T07:51:03;992.86;;;992.86;;
71183;SDS011;58887;51.980;4.464;2023-03-08T07:53:32;801.81;;;801.81;;
71183;SDS011;58887;51.980;4.464;2023-03-08T07:55:58;664.47;;;664.47;;
71183;SDS011;58887;51.980;4.464;2023-03-08T07:58:24;740.83;;;740.83;;
71183;SDS011;58887;51.980;4.464;2023-03-08T08:00:50;672.54;;;672.54;;
71183;SDS011;58887;51.980;4.464;2023-03-08T08:03:16;616.77;;;616.77;;
71183;SDS011;58887;51.980;4.464;2023-03-08T08:05:42;649.05;;;648.66;;
71183;SDS011;58887;51.980;4.464;2023-03-08T08:08:07;558.48;;;558.48;;
71183;SDS011;58887;51.980;4.464;2023-03-08T08:10:34;603.19;;;603.19;;
71183;SDS011;58887;51.980;4.464;2023-03-08T08:13:00;697.59;;;697.59;;
71183;SDS011;58887;51.980;4.464;2023-03-08T08:15:25;774.86;;;774.86;;
71183;SDS011;58887;51.980;4.464;2023-03-08T08:17:51;633.32;;;633.32;;
71183;SDS011;58887;51.980;4.464;2023-03-08T08:20:17;606.31;;;606.31;;
71183;SDS011;58887;51.980;4.464;2023-03-08T08:22:42;590.37;;;590.37;;
71183;SDS011;58887;51.980;4.464;2023-03-08T08:25:08;638.33;;;638.33;;
71183;SDS011;58887;51.980;4.464;2023-03-08T08:27:35;726.36;;;726.36;;
71183;SDS011;58887;51.980;4.464;2023-03-08T08:30:02;749.52;;;749.52;;
71183;SDS011;58887;51.980;4.464;2023-03-08T08:32:29;820.77;;;820.77;;
71183;SDS011;58887;51.980;4.464;2023-03-08T08:34:54;826.78;;;826.78;;
71183;SDS011;58887;51.980;4.464;2023-03-08T08:37:20;777.33;;;777.33;;
71183;SDS011;58887;51.980;4.464;2023-03-08T08:39:46;839.05;;;832.86;;
71183;SDS011;58887;51.980;4.464;2023-03-08T08:42:11;1293.32;;;1212.43;;
71183;SDS011;58887;51.980;4.464;2023-03-08T08:44:37;1163.38;;;1119.43;;
71183;SDS011;58887;51.980;4.464;2023-03-08T08:47:03;1103.04;;;1087.81;;
71183;SDS011;58887;51.980;4.464;2023-03-08T08:49:29;1048.13;;;1046.67;;
71183;SDS011;58887;51.980;4.464;2023-03-08T08:51:54;1044.08;;;1043.49;;
71183;SDS011;58887;51.980;4.464;2023-03-08T08:54:20;1167.45;;;1138.07;;
71183;SDS011;58887;51.980;4.464;2023-03-08T08:56:45;1175.83;;;1136.35;;
71183;SDS011;58887;51.980;4.464;2023-03-08T08:59:11;1053.99;;;1050.69;;
71183;SDS011;58887;51.980;4.464;2023-03-08T09:01:37;1076.66;;;1075.82;;
71183;SDS011;58887;51.980;4.464;2023-03-08T09:04:11;1102.93;;;1093.59;;
71183;SDS011;58887;51.980;4.464;2023-03-08T09:06:38;1219.01;;;1169.09;;
71183;SDS011;58887;51.980;4.464;2023-03-08T09:09:04;1027.10;;;1023.10;;
71183;SDS011;58887;51.980;4.464;2023-03-08T09:11:30;968.99;;;968.86;;
71183;SDS011;58887;51.980;4.464;2023-03-08T09:13:56;1148.44;;;1096.28;;
71183;SDS011;58887;51.980;4.464;2023-03-08T09:16:23;1375.21;;;1264.22;;
71183;SDS011;58887;51.980;4.464;2023-03-08T09:18:51;1078.99;;;1071.83;;
71183;SDS011;58887;51.980;4.464;2023-03-08T09:21:19;1073.93;;;1070.31;;
71183;SDS011;58887;51.980;4.464;2023-03-08T09:23:44;1080.84;;;1077.79;;
71183;SDS011;58887;51.980;4.464;2023-03-08T09:26:10;1066.91;;;1066.91;;
71183;SDS011;58887;51.980;4.464;2023-03-08T09:28:35;1005.62;;;1005.42;;
71183;SDS011;58887;51.980;4.464;2023-03-08T09:31:05;1026.03;;;1020.85;;
71183;SDS011;58887;51.980;4.464;2023-03-08T09:33:42;1007.70;;;1007.41;;
71183;SDS011;58887;51.980;4.464;2023-03-08T09:36:13;936.95;;;936.38;;
71183;SDS011;58887;51.980;4.464;2023-03-08T09:38:39;844.79;;;844.79;;
71183;SDS011;58887;51.980;4.464;2023-03-08T09:47:24;643.53;;;643.53;;
71183;SDS011;58887;51.980;4.464;2023-03-08T09:49:33;122.86;;;122.86;;
71183;SDS011;58887;51.980;4.464;2023-03-08T09:54:47;7.94;;;7.91;;
71183;SDS011;58887;51.980;4.464;2023-03-08T09:57:17;9.55;;;9.54;;
71183;SDS011;58887;51.980;4.464;2023-03-08T09:59:55;13.93;;;13.93;;
71183;SDS011;58887;51.980;4.464;2023-03-08T10:05:08;10.01;;;10.01;;
71183;SDS011;58887;51.980;4.464;2023-03-08T10:10:39;7.57;;;7.53;;
71183;SDS011;58887;51.980;4.464;2023-03-08T10:18:47;9.06;;;8.99;;
71183;SDS011;58887;51.980;4.464;2023-03-08T10:21:19;8.83;;;8.70;;
71183;SDS011;58887;51.980;4.464;2023-03-08T10:23:51;8.60;;;8.47;;
71183;SDS011;58887;51.980;4.464;2023-03-08T10:26:26;8.28;;;8.10;;
71183;SDS011;58887;51.980;4.464;2023-03-08T10:28:52;12.88;;;12.82;;
71183;SDS011;58887;51.980;4.464;2023-03-08T10:31:21;27.48;;;27.48;;
71183;SDS011;58887;51.980;4.464;2023-03-08T10:39:17;9.79;;;9.68;;
71183;SDS011;58887;51.980;4.464;2023-03-08T10:41:47;10.08;;;10.07;;
71183;SDS011;58887;51.980;4.464;2023-03-08T10:47:19;10.51;;;10.28;;
71183;SDS011;58887;51.980;4.464;2023-03-08T10:52:41;14.92;;;14.92;;
71183;SDS011;58887;51.980;4.464;2023-03-08T10:57:35;13.58;;;13.58;;
71183;SDS011;58887;51.980;4.464;2023-03-08T11:00:05;8.93;;;8.89;;
71183;SDS011;58887;51.980;4.464;2023-03-08T11:02:41;8.74;;;8.70;;
71183;SDS011;58887;51.980;4.464;2023-03-08T11:05:16;7.91;;;7.80;;
71183;SDS011;58887;51.980;4.464;2023-03-08T11:07:51;8.34;;;8.24;;
71183;SDS011;58887;51.980;4.464;2023-03-08T11:10:20;7.54;;;7.49;;
71183;SDS011;58887;51.980;4.464;2023-03-08T11:12:59;7.69;;;7.62;;
71183;SDS011;58887;51.980;4.464;2023-03-08T11:15:26;12.38;;;12.31;;
71183;SDS011;58887;51.980;4.464;2023-03-08T11:18:05;32.12;;;32.12;;
71183;SDS011;58887;51.980;4.464;2023-03-08T11:20:54;33.85;;;33.85;;
71183;SDS011;58887;51.980;4.464;2023-03-08T11:26:14;14.27;;;14.27;;
71183;SDS011;58887;51.980;4.464;2023-03-08T11:34:27;8.59;;;8.59;;
71183;SDS011;58887;51.980;4.464;2023-03-08T11:37:14;9.23;;;9.23;;
71183;SDS011;58887;51.980;4.464;2023-03-08T11:40:19;7.96;;;7.96;;
71183;SDS011;58887;51.980;4.464;2023-03-08T11:57:02;6.15;;;6.05;;
71183;SDS011;58887;51.980;4.464;2023-03-08T12:02:28;8.68;;;8.68;;
71183;SDS011;58887;51.980;4.464;2023-03-08T12:05:09;21.89;;;21.89;;
71183;SDS011;58887;51.980;4.464;2023-03-08T12:07:52;40.09;;;40.09;;
71183;SDS011;58887;51.980;4.464;2023-03-08T12:16:03;19.96;;;19.96;;
71183;SDS011;58887;51.980;4.464;2023-03-08T12:18:45;46.45;;;46.45;;
71183;SDS011;58887;51.980;4.464;2023-03-08T12:21:40;11.49;;;11.49;;
71183;SDS011;58887;51.980;4.464;2023-03-08T12:32:13;8.38;;;8.38;;
71183;SDS011;58887;51.980;4.464;2023-03-08T12:34:40;9.46;;;9.46;;
71183;SDS011;58887;51.980;4.464;2023-03-08T12:37:18;7.83;;;7.83;;
71183;SDS011;58887;51.980;4.464;2023-03-08T12:42:27;7.32;;;7.32;;
71183;SDS011;58887;51.980;4.464;2023-03-08T12:50:22;8.69;;;8.68;;
71183;SDS011;58887;51.980;4.464;2023-03-08T12:52:49;7.48;;;7.47;;
71183;SDS011;58887;51.980;4.464;2023-03-08T12:55:19;7.31;;;7.30;;
71183;SDS011;58887;51.980;4.464;2023-03-08T12:57:55;7.04;;;7.01;;
71183;SDS011;58887;51.980;4.464;2023-03-08T13:00:31;7.10;;;7.06;;
71183;SDS011;58887;51.980;4.464;2023-03-08T13:05:29;8.55;;;8.53;;
71183;SDS011;58887;51.980;4.464;2023-03-08T13:15:48;17.25;;;17.25;;
71183;SDS011;58887;51.980;4.464;2023-03-08T13:18:18;24.88;;;24.88;;
71183;SDS011;58887;51.980;4.464;2023-03-08T13:20:48;15.83;;;15.83;;
71183;SDS011;58887;51.980;4.464;2023-03-08T13:23:25;23.15;;;23.15;;
71183;SDS011;58887;51.980;4.464;2023-03-08T13:26:15;18.48;;;18.48;;
71183;SDS011;58887;51.980;4.464;2023-03-08T13:29:10;16.11;;;16.11;;
71183;SDS011;58887;51.980;4.464;2023-03-08T13:31:40;10.33;;;10.33;;
71183;SDS011;58887;51.980;4.464;2023-03-08T13:34:27;19.93;;;19.93;;
71183;SDS011;58887;51.980;4.464;2023-03-08T13:36:58;11.44;;;11.44;;
71183;SDS011;58887;51.980;4.464;2023-03-08T13:39:25;8.61;;;8.61;;
71183;SDS011;58887;51.980;4.464;2023-03-08T13:42:15;11.70;;;11.70;;
71183;SDS011;58887;51.980;4.464;2023-03-08T13:44:39;17.71;;;17.71;;
71183;SDS011;58887;51.980;4.464;2023-03-08T13:47:14;27.40;;;27.40;;
71183;SDS011;58887;51.980;4.464;2023-03-08T13:49:46;46.24;;;46.24;;
71183;SDS011;58887;51.980;4.464;2023-03-08T13:52:15;62.82;;;62.82;;
71183;SDS011;58887;51.980;4.464;2023-03-08T13:54:46;67.39;;;67.39;;
71183;SDS011;58887;51.980;4.464;2023-03-08T13:57:34;42.41;;;42.41;;
71183;SDS011;58887;51.980;4.464;2023-03-08T14:02:44;55.80;;;55.80;;
71183;SDS011;58887;51.980;4.464;2023-03-08T14:05:16;51.26;;;51.26;;
71183;SDS011;58887;51.980;4.464;2023-03-08T14:07:53;44.68;;;44.68;;
71183;SDS011;58887;51.980;4.464;2023-03-08T14:10:20;37.60;;;37.60;;
71183;SDS011;58887;51.980;4.464;2023-03-08T14:12:52;40.62;;;40.62;;
71183;SDS011;58887;51.980;4.464;2023-03-08T14:15:19;46.62;;;46.62;;
71183;SDS011;58887;51.980;4.464;2023-03-08T14:17:46;64.36;;;64.36;;
71183;SDS011;58887;51.980;4.464;2023-03-08T14:20:19;63.23;;;63.23;;
71183;SDS011;58887;51.980;4.464;2023-03-08T14:22:48;70.68;;;70.68;;
71183;SDS011;58887;51.980;4.464;2023-03-08T14:25:20;67.11;;;67.09;;
71183;SDS011;58887;51.980;4.464;2023-03-08T14:27:46;37.63;;;37.63;;
71183;SDS011;58887;51.980;4.464;2023-03-08T14:30:17;35.47;;;35.47;;
71183;SDS011;58887;51.980;4.464;2023-03-08T14:35:53;97.31;;;97.25;;
71183;SDS011;58887;51.980;4.464;2023-03-08T14:38:25;62.13;;;62.13;;
71183;SDS011;58887;51.980;4.464;2023-03-08T14:40:54;38.81;;;38.81;;
71183;SDS011;58887;51.980;4.464;2023-03-08T14:43:30;18.28;;;18.28;;
71183;SDS011;58887;51.980;4.464;2023-03-08T14:46:16;13.23;;;13.23;;
71183;SDS011;58887;51.980;4.464;2023-03-08T14:48:44;15.75;;;15.75;;
71183;SDS011;58887;51.980;4.464;2023-03-08T14:51:26;17.68;;;17.68;;
71183;SDS011;58887;51.980;4.464;2023-03-08T14:54:01;16.72;;;16.72;;
71183;SDS011;58887;51.980;4.464;2023-03-08T14:56:31;19.89;;;19.89;;
71183;SDS011;58887;51.980;4.464;2023-03-08T14:58:59;12.68;;;12.68;;
71183;SDS011;58887;51.980;4.464;2023-03-08T15:03:54;11.80;;;11.74;;
71183;SDS011;58887;51.980;4.464;2023-03-08T15:06:22;11.48;;;11.45;;
71183;SDS011;58887;51.980;4.464;2023-03-08T15:08:50;12.51;;;12.47;;
71183;SDS011;58887;51.980;4.464;2023-03-08T15:11:25;12.31;;;12.25;;
71183;SDS011;58887;51.980;4.464;2023-03-08T15:13:58;12.10;;;12.07;;
71183;SDS011;58887;51.980;4.464;2023-03-08T15:16:23;12.74;;;12.71;;
71183;SDS011;58887;51.980;4.464;2023-03-08T15:18:49;11.52;;;11.33;;
71183;SDS011;58887;51.980;4.464;2023-03-08T15:21:20;11.86;;;11.55;;
71183;SDS011;58887;51.980;4.464;2023-03-08T15:23:48;11.88;;;11.64;;
71183;SDS011;58887;51.980;4.464;2023-03-08T15:26:27;12.15;;;11.91;;
71183;SDS011;58887;51.980;4.464;2023-03-08T15:28:55;12.34;;;11.97;;
71183;SDS011;58887;51.980;4.464;2023-03-08T15:31:23;22.60;;;22.32;;
71183;SDS011;58887;51.980;4.464;2023-03-08T15:36:18;12.65;;;12.32;;
71183;SDS011;58887;51.980;4.464;2023-03-08T15:38:44;13.02;;;12.61;;
71183;SDS011;58887;51.980;4.464;2023-03-08T15:41:11;15.99;;;15.95;;
71183;SDS011;58887;51.980;4.464;2023-03-08T15:43:38;14.66;;;14.66;;
71183;SDS011;58887;51.980;4.464;2023-03-08T15:48:35;14.90;;;14.90;;
71183;SDS011;58887;51.980;4.464;2023-03-08T15:51:01;19.89;;;19.89;;
71183;SDS011;58887;51.980;4.464;2023-03-08T15:53:27;33.39;;;33.39;;
71183;SDS011;58887;51.980;4.464;2023-03-08T15:55:54;43.06;;;43.06;;
71183;SDS011;58887;51.980;4.464;2023-03-08T15:58:20;35.97;;;35.97;;
71183;SDS011;58887;51.980;4.464;2023-03-08T16:00:46;19.50;;;19.50;;
71183;SDS011;58887;51.980;4.464;2023-03-08T16:03:12;16.00;;;16.00;;
71183;SDS011;58887;51.980;4.464;2023-03-08T16:05:38;13.51;;;13.44;;